Time;durP1;ratioP1;P1;durP2;ratioP2;P2;SDS_P1;SDS_P2;PMS_P1;PMS_P2;Temp;Humidity;BMP_temperature;BMP_pressure;BME280_temperature;BME280_humidity;BME280_pressure;Samples;Min_cycle;Max_cycle;Signal;HPM_P1;HPM_P2
2023/08/19 00:00:40;;;;;;;11.10;6.83;;;;;;;22.54;68.06;100880.16;1742869;82;21525;-60
2023/08/19 00:03:09;;;;;;;9.08;7.15;;;;;;;22.54;68.14;100887.14;1742932;82;21027;-60
2023/08/19 00:05:39;;;;;;;9.23;6.67;;;;;;;22.52;68.20;100875.39;1743143;82;21066;-61
2023/08/19 00:08:09;;;;;;;10.32;6.37;;;;;;;22.48;68.26;100881.21;1742783;82;21071;-61
2023/08/19 00:10:38;;;;;;;9.80;6.58;;;;;;;22.44;68.41;100878.95;1742980;82;21114;-61
2023/08/19 00:13:08;;;;;;;20.72;7.35;;;;;;;22.43;68.60;100873.63;1742690;82;21026;-61
2023/08/19 00:15:40;;;;;;;14.30;7.12;;;;;;;22.41;68.77;100869.70;1742672;82;21059;-60
2023/08/19 00:18:09;;;;;;;10.90;6.85;;;;;;;22.42;68.94;100870.55;1743035;82;21084;-61
2023/08/19 00:20:38;;;;;;;12.30;7.22;;;;;;;22.42;69.00;100876.13;1742809;82;21493;-61
2023/08/19 00:23:07;;;;;;;11.05;6.87;;;;;;;22.37;69.08;100871.34;1742746;82;21059;-61
2023/08/19 00:25:36;;;;;;;11.93;7.25;;;;;;;22.37;69.27;100872.73;1743008;82;21070;-61
2023/08/19 00:28:05;;;;;;;9.85;6.60;;;;;;;22.37;69.32;100874.69;1742876;82;21086;-61
2023/08/19 00:30:35;;;;;;;10.15;6.50;;;;;;;22.31;69.37;100868.21;1743094;82;21109;-61
2023/08/19 00:33:05;;;;;;;10.45;6.67;;;;;;;22.27;69.53;100867.61;1742806;82;22043;-60
2023/08/19 00:35:34;;;;;;;10.28;7.20;;;;;;;22.21;69.70;100875.09;1743017;82;21106;-61
2023/08/19 00:38:03;;;;;;;11.20;6.90;;;;;;;22.21;69.84;100871.45;1743073;82;21079;-60
2023/08/19 00:40:32;;;;;;;8.68;7.03;;;;;;;22.20;70.02;100872.01;1743084;82;21159;-62
2023/08/19 00:43:01;;;;;;;9.38;7.05;;;;;;;22.20;70.16;100863.63;1743040;82;21091;-61
2023/08/19 00:45:30;;;;;;;14.00;7.35;;;;;;;22.17;70.19;100866.95;1742818;82;21047;-61
2023/08/19 00:47:59;;;;;;;10.03;7.20;;;;;;;22.15;70.33;100867.77;1743038;82;21086;-61
2023/08/19 00:50:30;;;;;;;10.72;6.90;;;;;;;22.13;70.43;100862.45;1743055;82;21023;-61
2023/08/19 00:52:59;;;;;;;13.18;7.58;;;;;;;22.13;70.44;100862.45;1743011;82;21043;-62
2023/08/19 00:55:28;;;;;;;8.78;7.22;;;;;;;22.13;70.53;100865.24;1743210;82;21078;-61
2023/08/19 00:57:57;;;;;;;11.15;6.92;;;;;;;22.13;70.65;100866.64;1722574;82;21070;-61
2023/08/19 01:00:27;;;;;;;12.07;7.45;;;;;;;22.12;70.74;100862.16;1708714;82;21106;-62
2023/08/19 01:02:57;;;;;;;10.40;7.60;;;;;;;22.09;70.83;100866.00;1715409;84;21014;-60
2023/08/19 01:05:40;;;;;;;12.47;7.60;;;;;;;22.05;70.95;100857.86;1715524;84;21018;-61
2023/08/19 01:08:11;;;;;;;11.00;7.50;;;;;;;22.01;71.10;100854.72;1715608;84;21078;-61
2023/08/19 01:11:12;;;;;;;12.37;7.37;;;;;;;22.00;71.20;100855.83;1715348;84;21528;-61
2023/08/19 01:13:46;;;;;;;10.78;7.40;;;;;;;21.99;71.39;100858.88;1715311;84;21056;-61
2023/08/19 01:16:25;;;;;;;11.43;8.03;;;;;;;21.98;71.52;100857.19;1710931;84;21027;-61
2023/08/19 01:18:54;;;;;;;12.35;6.90;;;;;;;21.96;71.66;100849.63;1715462;84;21061;-60
2023/08/19 01:21:23;;;;;;;10.78;7.65;;;;;;;21.94;71.86;100860.22;1715378;84;20998;-61
2023/08/19 01:23:54;;;;;;;10.88;7.85;;;;;;;21.94;72.05;100856.03;1715375;84;21062;-61
2023/08/19 01:26:23;;;;;;;11.57;8.25;;;;;;;21.95;72.08;100854.37;1715644;82;21034;-60
2023/08/19 01:28:52;;;;;;;13.53;8.75;;;;;;;21.96;72.07;100849.08;1715336;84;21032;-60
2023/08/19 01:31:21;;;;;;;24.98;9.43;;;;;;;21.95;72.08;100853.53;1715577;83;21070;-61
2023/08/19 01:33:50;;;;;;;16.87;9.48;;;;;;;21.95;72.20;100848.80;1715606;84;21050;-60
2023/08/19 01:36:30;;;;;;;13.10;8.60;;;;;;;21.98;72.19;100851.06;1715518;84;21030;-61
2023/08/19 01:39:08;;;;;;;14.95;9.35;;;;;;;21.98;72.24;100853.84;1715584;82;21011;-61
2023/08/19 01:41:37;;;;;;;15.28;9.13;;;;;;;21.97;72.37;100852.72;1715396;83;21070;-61
2023/08/19 01:44:06;;;;;;;15.93;8.93;;;;;;;21.95;72.40;100852.13;1715560;84;21074;-60
2023/08/19 01:46:36;;;;;;;11.90;9.15;;;;;;;21.90;72.53;100852.92;1715376;83;21006;-60
2023/08/19 01:49:05;;;;;;;12.63;8.65;;;;;;;21.88;72.68;100859.87;1715261;83;21082;-60
2023/08/19 01:51:35;;;;;;;15.85;8.35;;;;;;;21.82;72.85;100854.23;1715299;84;21070;-60
2023/08/19 01:54:06;;;;;;;13.05;8.40;;;;;;;21.82;73.02;100851.44;1715349;84;21010;-60
2023/08/19 01:56:35;;;;;;;15.20;8.28;;;;;;;21.83;72.99;100852.28;1716449;81;21514;-60
2023/08/19 01:59:04;;;;;;;10.65;7.83;;;;;;;21.81;73.06;100848.91;1742833;82;21027;-61
2023/08/19 02:01:33;;;;;;;12.60;8.23;;;;;;;21.79;73.21;100849.72;1742809;82;21067;-61
2023/08/19 02:04:02;;;;;;;13.20;8.68;;;;;;;21.77;73.39;100847.19;1743299;82;21411;-60
2023/08/19 02:06:33;;;;;;;12.53;8.20;;;;;;;21.77;73.58;100851.38;1742894;82;21103;-60
2023/08/19 02:09:02;;;;;;;10.88;7.90;;;;;;;21.75;73.65;100855.53;1742818;82;21035;-60
2023/08/19 02:11:31;;;;;;;13.40;8.13;;;;;;;21.72;73.79;100858.29;1742888;82;21471;-61
2023/08/19 02:13:59;;;;;;;15.98;8.40;;;;;;;21.69;73.90;100860.76;1742891;82;21039;-60
2023/08/19 02:16:28;;;;;;;12.98;8.20;;;;;;;21.66;74.08;100856.55;1742891;82;21083;-61
2023/08/19 02:18:59;;;;;;;15.03;7.70;;;;;;;21.64;74.22;100862.94;1742852;82;21106;-59
2023/08/19 02:21:28;;;;;;;11.12;8.68;;;;;;;21.65;74.32;100857.64;1743067;82;21055;-60
2023/08/19 02:23:56;;;;;;;14.90;8.35;;;;;;;21.66;74.32;100858.48;1742862;82;21007;-59
2023/08/19 02:26:26;;;;;;;11.08;7.62;;;;;;;21.65;74.44;100858.20;1742842;82;21687;-60
2023/08/19 02:28:55;;;;;;;11.60;7.83;;;;;;;21.63;74.53;100859.85;1742997;82;21027;-60
2023/08/19 02:31:23;;;;;;;9.80;8.23;;;;;;;21.63;74.60;100857.61;1742840;82;21039;-59
2023/08/19 02:33:53;;;;;;;9.75;7.92;;;;;;;21.59;74.69;100864.27;1743057;82;21051;-60
2023/08/19 02:36:22;;;;;;;14.65;8.28;;;;;;;21.57;74.82;100863.68;1742911;82;21051;-61
2023/08/19 02:38:51;;;;;;;11.45;8.63;;;;;;;21.55;74.95;100865.89;1743031;82;21083;-60
2023/08/19 02:41:19;;;;;;;15.50;8.68;;;;;;;21.56;75.04;100866.73;1742814;82;21039;-60
2023/08/19 02:43:48;;;;;;;12.28;8.60;;;;;;;21.57;75.04;100871.20;1742906;82;21050;-60
2023/08/19 02:46:17;;;;;;;13.48;8.25;;;;;;;21.56;75.04;100874.54;1743083;82;21035;-60
2023/08/19 02:48:47;;;;;;;15.03;8.68;;;;;;;21.53;75.11;100871.43;1743038;82;21031;-61
2023/08/19 02:51:16;;;;;;;10.43;7.90;;;;;;;21.50;75.24;100882.00;1742828;82;21064;-60
2023/08/19 02:53:45;;;;;;;11.48;8.18;;;;;;;21.48;75.34;100881.41;1743057;82;21074;-60
2023/08/19 02:56:14;;;;;;;15.10;8.95;;;;;;;21.47;75.43;100883.91;1743055;82;21098;-59
2023/08/19 02:58:43;;;;;;;13.75;9.15;;;;;;;21.50;75.46;100886.18;1749434;82;21018;-60
2023/08/19 03:01:13;;;;;;;14.40;8.63;;;;;;;21.55;75.42;100878.98;1751221;82;21023;-59
2023/08/19 03:03:44;;;;;;;18.20;9.43;;;;;;;21.60;75.31;100881.29;1751537;82;21035;-60
2023/08/19 03:06:13;;;;;;;15.53;8.93;;;;;;;21.65;75.22;100880.52;1751191;82;21078;-60
2023/08/19 03:08:42;;;;;;;12.00;8.20;;;;;;;21.70;75.00;100873.05;1751514;82;21015;-59
2023/08/19 03:11:11;;;;;;;19.15;9.13;;;;;;;21.76;74.74;100885.11;1751247;82;21213;-60
2023/08/19 03:13:41;;;;;;;14.28;8.58;;;;;;;21.81;74.57;100885.17;1751415;82;21031;-60
2023/08/19 03:16:10;;;;;;;12.73;8.50;;;;;;;21.86;74.33;100888.03;1751420;82;21083;-60
2023/08/19 03:18:39;;;;;;;13.98;8.00;;;;;;;21.92;74.16;100886.98;1751219;82;21129;-60
2023/08/19 03:21:09;;;;;;;15.13;8.38;;;;;;;21.97;73.93;100888.98;1751179;82;21026;-60
2023/08/19 03:23:38;;;;;;;11.80;8.65;;;;;;;22.00;73.66;100886.52;1751496;81;21027;-60
2023/08/19 03:26:07;;;;;;;24.70;9.33;;;;;;;22.04;73.51;100884.08;1751404;82;21027;-61
2023/08/19 03:28:36;;;;;;;16.42;8.75;;;;;;;22.07;73.23;100890.53;1751232;82;21066;-61
2023/08/19 03:31:10;;;;;;;12.20;8.83;;;;;;;22.07;73.07;100886.34;1751296;82;21062;-60
2023/08/19 03:33:42;;;;;;;13.20;8.90;;;;;;;22.12;72.92;100882.25;1751439;81;21043;-60
2023/08/19 03:36:11;;;;;;;15.83;8.80;;;;;;;22.14;72.86;100887.02;1751271;81;21431;-61
2023/08/19 03:38:40;;;;;;;12.15;8.73;;;;;;;22.16;72.77;100879.78;1751261;82;21498;-60
2023/08/19 03:41:11;;;;;;;15.32;8.98;;;;;;;22.18;72.69;100874.77;1751311;81;21007;-60
2023/08/19 03:43:40;;;;;;;12.73;8.80;;;;;;;22.21;72.59;100875.64;1751407;82;21030;-60
2023/08/19 03:46:12;;;;;;;13.45;8.73;;;;;;;22.23;72.52;100870.09;1751288;82;21026;-61
2023/08/19 03:48:41;;;;;;;27.17;9.83;;;;;;;22.24;72.46;100870.38;1751208;82;21058;-59
2023/08/19 03:51:10;;;;;;;15.58;8.53;;;;;;;22.26;72.43;100865.92;1751156;82;21026;-60
2023/08/19 03:53:39;;;;;;;16.60;8.70;;;;;;;22.28;72.28;100866.50;1751280;82;21074;-60
2023/08/19 03:56:09;;;;;;;12.90;8.00;;;;;;;22.28;72.28;100865.95;1751334;81;21054;-60
2023/08/19 03:58:37;;;;;;;12.33;7.87;;;;;;;22.31;72.27;100874.35;1751233;82;21050;-59
2023/08/19 04:01:08;;;;;;;12.13;8.18;;;;;;;22.35;72.22;100872.16;1751506;81;21047;-60
2023/08/19 04:03:39;;;;;;;13.03;8.88;;;;;;;22.37;72.01;100872.73;1751484;82;21035;-61
2023/08/19 04:06:10;;;;;;;14.15;9.30;;;;;;;22.40;71.88;100872.77;1751391;82;21024;-60
2023/08/19 04:08:39;;;;;;;11.50;8.28;;;;;;;22.43;71.72;100870.84;1751498;81;21042;-60
2023/08/19 04:11:08;;;;;;;12.00;8.35;;;;;;;22.48;71.58;100882.61;1751501;81;21082;-60
2023/08/19 04:13:37;;;;;;;10.53;8.70;;;;;;;22.54;71.44;100885.73;1751422;81;21034;-60
2023/08/19 04:16:07;;;;;;;11.25;8.63;;;;;;;22.58;71.29;100874.33;1751537;82;21051;-60
2023/08/19 04:18:37;;;;;;;16.00;8.68;;;;;;;22.61;71.10;100873.23;1751557;81;21206;-61
2023/08/19 04:21:07;;;;;;;14.25;10.05;;;;;;;22.66;70.92;100879.42;1751316;82;21023;-59
2023/08/19 04:23:36;;;;;;;15.60;9.23;;;;;;;22.70;70.85;100879.17;1751376;82;21051;-61
2023/08/19 04:26:08;;;;;;;14.93;9.20;;;;;;;22.75;70.75;100873.63;1751346;82;21536;-61
2023/08/19 04:28:38;;;;;;;14.07;8.48;;;;;;;22.78;70.64;100875.92;1751475;82;21046;-59
2023/08/19 04:31:08;;;;;;;14.10;9.15;;;;;;;22.81;70.61;100871.23;1751458;82;21054;-60
2023/08/19 04:33:40;;;;;;;10.75;8.50;;;;;;;22.86;70.46;100871.83;1751274;81;21039;-61
2023/08/19 04:36:10;;;;;;;11.33;8.75;;;;;;;22.89;70.31;100870.73;1751540;81;21458;-61
2023/08/19 04:38:39;;;;;;;14.23;8.68;;;;;;;22.95;70.18;100875.25;1751333;82;21507;-60
2023/08/19 04:41:10;;;;;;;11.60;8.13;;;;;;;22.99;70.08;100875.00;1751513;82;21039;-61
2023/08/19 04:43:41;;;;;;;12.65;7.75;;;;;;;23.04;70.01;100868.05;1750510;82;21078;-60
2023/08/19 04:46:11;;;;;;;11.18;8.00;;;;;;;23.10;69.89;100868.92;1751456;82;21030;-59
2023/08/19 04:48:41;;;;;;;10.00;7.67;;;;;;;23.17;69.87;100862.54;1751564;82;21039;-60
2023/08/19 04:51:10;;;;;;;10.25;7.60;;;;;;;23.24;69.86;100863.70;1751368;82;21031;-60
2023/08/19 04:53:40;;;;;;;11.65;9.18;;;;;;;23.30;69.46;100864.02;1751391;81;21027;-59
2023/08/19 04:56:09;;;;;;;12.88;8.35;;;;;;;23.35;69.26;100862.09;1751380;81;21034;-59
2023/08/19 04:58:38;;;;;;;18.73;7.80;;;;;;;23.43;68.94;100866.35;1747286;81;21517;-61
2023/08/19 05:01:08;;;;;;;9.78;7.40;;;;;;;23.49;68.66;100863.87;1742986;82;21051;-59
2023/08/19 05:03:39;;;;;;;8.65;7.17;;;;;;;23.54;68.39;100869.48;1742871;82;21451;-61
2023/08/19 05:06:08;;;;;;;14.38;8.25;;;;;;;23.59;68.19;100868.14;1720280;82;21499;-60
2023/08/19 05:08:40;;;;;;;12.20;8.10;;;;;;;23.65;68.06;100869.01;1742962;82;20995;-60
2023/08/19 05:11:09;;;;;;;11.33;8.13;;;;;;;23.69;67.82;100873.78;1742946;82;21055;-60
2023/08/19 05:13:38;;;;;;;10.53;8.78;;;;;;;23.75;67.69;100875.20;1743106;82;21086;-61
2023/08/19 05:16:10;;;;;;;11.38;9.10;;;;;;;23.79;67.67;100877.73;1743249;82;21020;-60
2023/08/19 05:18:41;;;;;;;12.60;7.97;;;;;;;23.83;67.48;100876.08;1742957;82;21008;-60
2023/08/19 05:21:11;;;;;;;13.15;7.90;;;;;;;23.86;67.44;100878.33;1742829;82;21067;-61
2023/08/19 05:23:40;;;;;;;12.75;8.73;;;;;;;23.88;67.34;100871.89;1742950;82;21102;-59
2023/08/19 05:26:10;;;;;;;12.78;8.63;;;;;;;23.93;67.23;100879.75;1742880;82;21008;-61
2023/08/19 05:28:39;;;;;;;12.68;7.97;;;;;;;23.97;67.14;100882.28;1742873;82;21086;-61
2023/08/19 05:31:10;;;;;;;15.32;8.38;;;;;;;24.01;67.01;100879.78;1742743;82;21011;-61
2023/08/19 05:33:40;;;;;;;14.55;8.73;;;;;;;24.03;66.93;100879.78;1742906;82;21031;-60
2023/08/19 05:36:09;;;;;;;18.60;11.48;;;;;;;24.08;66.80;100881.79;1742869;82;21503;-60
2023/08/19 05:38:39;;;;;;;16.52;9.63;;;;;;;24.10;66.82;100883.75;1743066;82;21063;-59
2023/08/19 05:41:08;;;;;;;18.00;8.40;;;;;;;24.13;66.62;100878.16;1742848;82;21070;-61
2023/08/19 05:43:38;;;;;;;18.82;9.30;;;;;;;24.15;66.52;100878.73;1743067;82;21018;-61
2023/08/19 05:46:07;;;;;;;13.15;8.33;;;;;;;24.17;66.55;100880.13;1743077;82;21106;-61
2023/08/19 05:48:37;;;;;;;22.20;9.30;;;;;;;24.23;66.47;100887.42;1742974;82;21091;-59
2023/08/19 05:51:07;;;;;;;14.58;8.73;;;;;;;24.27;66.26;100881.58;1742792;82;21031;-60
2023/08/19 05:53:38;;;;;;;16.95;9.38;;;;;;;24.31;66.20;100884.12;1743038;82;21074;-60
2023/08/19 05:56:08;;;;;;;13.60;8.90;;;;;;;24.36;66.11;100881.04;1742836;82;21078;-58
2023/08/19 05:58:38;;;;;;;13.80;8.75;;;;;;;24.42;65.95;100887.77;1701754;83;21117;-61
2023/08/19 06:01:07;;;;;;;14.73;8.45;;;;;;;24.46;65.86;100885.26;1698652;84;21021;-60
2023/08/19 06:03:37;;;;;;;9.75;7.67;;;;;;;24.51;65.58;100888.06;1698839;84;21037;-61
2023/08/19 06:06:07;;;;;;;12.00;8.35;;;;;;;24.57;65.44;100883.59;1698801;84;21112;-59
2023/08/19 06:08:36;;;;;;;12.33;7.40;;;;;;;24.61;65.21;100893.12;1698711;84;21057;-61
2023/08/19 06:11:06;;;;;;;10.08;7.20;;;;;;;24.63;65.08;100890.03;1698508;84;21128;-61
2023/08/19 06:13:35;;;;;;;10.75;8.33;;;;;;;24.65;65.13;100895.64;1698771;84;21077;-60
2023/08/19 06:16:05;;;;;;;13.18;8.13;;;;;;;24.68;64.97;100887.23;1710229;82;21046;-60
2023/08/19 06:18:34;;;;;;;10.03;7.97;;;;;;;24.73;65.07;100894.27;1751108;82;21035;-61
2023/08/19 06:21:03;;;;;;;11.95;8.10;;;;;;;24.76;65.04;100893.72;1750956;82;21046;-61
2023/08/19 06:23:34;;;;;;;15.60;8.40;;;;;;;24.82;64.79;100894.56;1750743;82;21055;-61
2023/08/19 06:26:04;;;;;;;9.38;7.95;;;;;;;24.87;64.61;100892.59;1750675;82;21467;-61
2023/08/19 06:28:33;;;;;;;11.33;7.67;;;;;;;24.94;64.54;100891.75;1750933;82;21039;-61
2023/08/19 06:31:03;;;;;;;14.93;8.95;;;;;;;24.98;64.51;100889.81;1750682;82;21035;-60
2023/08/19 06:33:33;;;;;;;14.80;8.50;;;;;;;25.02;64.28;100890.94;1750628;82;21039;-62
2023/08/19 06:36:02;;;;;;;11.18;7.55;;;;;;;25.07;64.09;100890.92;1750767;82;21034;-61
2023/08/19 06:38:32;;;;;;;12.80;7.53;;;;;;;25.24;63.98;100892.30;1750901;82;21501;-60
2023/08/19 06:41:04;;;;;;;11.70;8.73;;;;;;;25.59;63.38;100896.17;1750756;82;21065;-61
2023/08/19 06:43:33;;;;;;;12.37;8.15;;;;;;;25.96;62.56;100894.36;1750659;82;21467;-61
2023/08/19 06:46:03;;;;;;;11.30;7.30;;;;;;;26.40;61.38;100905.69;1750909;82;21431;-61
2023/08/19 06:48:33;;;;;;;11.68;7.12;;;;;;;26.84;59.83;100897.23;1750724;82;21490;-61
2023/08/19 06:51:03;;;;;;;10.95;7.60;;;;;;;27.32;58.04;100904.44;1750714;82;21055;-60
2023/08/19 06:53:32;;;;;;;11.80;7.40;;;;;;;27.84;56.31;100906.14;1750924;82;21504;-60
2023/08/19 06:56:31;;;;;;;10.43;7.40;;;;;;;28.23;54.87;100901.16;1750855;82;21102;-60
2023/08/19 06:59:20;;;;;;;15.38;7.72;;;;;;;28.68;53.42;100908.69;1750773;80;21070;-60
2023/08/19 07:01:53;;;;;;;11.43;7.17;;;;;;;29.11;52.00;100918.43;1751220;81;21487;-59
2023/08/19 07:04:27;;;;;;;11.65;6.75;;;;;;;29.45;51.29;100915.33;1751242;82;21022;-61
2023/08/19 07:06:59;;;;;;;12.03;6.67;;;;;;;29.80;50.10;100916.03;1751420;82;21023;-61
2023/08/19 07:09:29;;;;;;;11.90;7.17;;;;;;;30.25;49.11;100916.25;1751233;82;21545;-60
2023/08/19 07:11:59;;;;;;;9.43;7.00;;;;;;;30.56;47.66;100915.84;1751168;81;20999;-61
2023/08/19 07:14:29;;;;;;;9.55;6.58;;;;;;;30.78;47.24;100908.55;1751216;82;21443;-59
2023/08/19 07:17:05;;;;;;;8.85;6.90;;;;;;;31.02;46.59;100907.65;1751229;82;21019;-65
2023/08/19 07:19:40;;;;;;;10.72;6.28;;;;;;;31.26;45.63;100905.11;1751290;81;21030;-60
2023/08/19 07:22:09;;;;;;;11.68;8.00;;;;;;;31.54;45.08;100906.59;1751465;82;21063;-61
2023/08/19 07:24:38;;;;;;;10.98;6.17;;;;;;;31.87;44.19;100908.53;1751325;82;21042;-60
2023/08/19 07:27:08;;;;;;;8.38;6.42;;;;;;;32.12;43.15;100904.09;1751382;81;21533;-59
2023/08/19 07:29:37;;;;;;;9.50;7.03;;;;;;;32.12;42.42;100915.43;1751402;82;21047;-60
2023/08/19 07:32:09;;;;;;;8.88;6.55;;;;;;;32.15;42.51;100903.43;1723203;82;21087;-61
2023/08/19 07:34:39;;;;;;;9.60;6.45;;;;;;;32.28;41.75;100908.16;1751246;82;21031;-61
2023/08/19 07:37:09;;;;;;;9.60;5.97;;;;;;;32.38;41.93;100908.42;1751396;82;21042;-59
2023/08/19 07:39:40;;;;;;;8.33;6.20;;;;;;;32.58;41.26;100909.21;1723220;82;21031;-60
2023/08/19 07:42:10;;;;;;;8.20;6.55;;;;;;;32.88;41.04;100907.98;1751391;82;21031;-60
2023/08/19 07:44:40;;;;;;;7.67;6.08;;;;;;;33.21;40.37;100906.28;1751331;82;21023;-60
2023/08/19 07:47:09;;;;;;;9.68;6.67;;;;;;;33.29;39.98;100902.58;1751475;82;21035;-61
2023/08/19 07:49:41;;;;;;;10.98;6.60;;;;;;;33.39;39.63;100905.67;1751204;82;21027;-60
2023/08/19 07:52:09;;;;;;;9.05;5.97;;;;;;;33.43;39.47;100910.92;1751384;82;21051;-61
2023/08/19 07:54:39;;;;;;;9.73;6.37;;;;;;;33.43;39.42;100912.34;1751155;81;21031;-61
2023/08/19 07:57:09;;;;;;;10.10;6.22;;;;;;;33.52;39.27;100908.89;1754106;80;21094;-62
2023/08/19 07:59:38;;;;;;;28.55;8.35;;;;;;;33.63;38.97;100907.34;1779564;80;21044;-62
2023/08/19 08:02:08;;;;;;;13.53;7.05;;;;;;;33.73;38.89;100911.22;1796952;80;21095;-62
2023/08/19 08:04:38;;;;;;;8.75;5.97;;;;;;;33.94;38.43;100907.67;1769615;80;21517;-60
2023/08/19 08:07:07;;;;;;;10.88;6.22;;;;;;;34.09;38.18;100904.23;1764621;81;21064;-62
2023/08/19 08:09:37;;;;;;;8.30;5.87;;;;;;;34.21;37.84;100909.18;1751131;81;21107;-61
2023/08/19 08:12:09;;;;;;;7.35;6.10;;;;;;;34.25;37.87;100909.56;1751090;81;21013;-62
2023/08/19 08:14:38;;;;;;;11.80;6.10;;;;;;;34.29;37.73;100911.13;1751267;81;21084;-63
2023/08/19 08:17:07;;;;;;;12.45;6.85;;;;;;;34.38;37.63;100903.39;1763454;80;21471;-62
2023/08/19 08:19:38;;;;;;;11.25;6.20;;;;;;;34.64;37.16;100903.22;1757946;81;21028;-61
2023/08/19 08:22:09;;;;;;;10.30;6.30;;;;;;;34.76;36.84;100896.16;1768721;81;21023;-60
2023/08/19 08:24:37;;;;;;;9.00;5.90;;;;;;;34.69;37.32;100898.73;1760917;81;21044;-62
2023/08/19 08:27:07;;;;;;;9.05;5.87;;;;;;;34.73;37.19;100894.60;1768570;81;21416;-61
2023/08/19 08:29:37;;;;;;;6.83;6.08;;;;;;;34.87;36.63;100896.00;1760590;81;21479;-61
2023/08/19 08:32:09;;;;;;;11.30;6.50;;;;;;;34.96;36.53;100896.75;1768668;81;21091;-62
2023/08/19 08:34:39;;;;;;;10.63;5.90;;;;;;;35.06;36.17;100895.48;1777411;81;21032;-61
2023/08/19 08:37:09;;;;;;;12.98;6.55;;;;;;;34.95;35.89;100893.66;1777468;80;21137;-63
2023/08/19 08:39:39;;;;;;;9.53;6.20;;;;;;;34.76;36.42;100889.62;1777352;81;21095;-62
2023/08/19 08:42:09;;;;;;;9.08;6.20;;;;;;;34.74;36.57;100888.56;1777153;81;21115;-60
2023/08/19 08:44:38;;;;;;;12.75;6.30;;;;;;;34.68;36.83;100885.69;1777361;81;21076;-61
2023/08/19 08:47:09;;;;;;;8.13;6.15;;;;;;;34.64;36.55;100876.17;1777647;81;21024;-62
2023/08/19 08:49:39;;;;;;;9.68;5.97;;;;;;;34.65;36.33;100879.27;1777401;81;21040;-62
2023/08/19 08:52:09;;;;;;;9.10;6.15;;;;;;;34.70;35.99;100883.31;1777253;81;21056;-61
2023/08/19 08:54:40;;;;;;;12.75;5.72;;;;;;;34.80;35.48;100877.20;1777398;81;21028;-61
2023/08/19 08:57:10;;;;;;;10.00;6.58;;;;;;;34.74;35.43;100880.61;1753665;81;21421;-61
2023/08/19 08:59:40;;;;;;;10.88;6.70;;;;;;;34.62;35.81;100883.64;1775313;80;21049;-61
2023/08/19 09:02:09;;;;;;;8.30;6.55;;;;;;;34.65;35.52;100880.69;1743523;81;21441;-62
2023/08/19 09:04:40;;;;;;;8.70;6.45;;;;;;;34.53;36.20;100879.20;1777044;81;21112;-62
2023/08/19 09:07:17;;;;;;;10.30;6.50;;;;;;;34.54;36.55;100878.02;1736333;82;21420;-61
2023/08/19 09:09:46;;;;;;;8.63;6.72;;;;;;;34.53;36.42;100880.63;1742596;82;21107;-61
2023/08/19 09:12:15;;;;;;;9.95;6.53;;;;;;;34.34;36.57;100879.06;1713631;82;21050;-61
2023/08/19 09:14:45;;;;;;;8.75;6.40;;;;;;;34.13;36.54;100883.88;1742584;82;21048;-60
2023/08/19 09:17:14;;;;;;;10.68;6.90;;;;;;;33.90;36.52;100875.41;1742732;82;21029;-62
2023/08/19 09:19:44;;;;;;;11.73;7.00;;;;;;;33.67;37.23;100872.80;1742778;82;21118;-60
2023/08/19 09:22:22;;;;;;;11.68;7.35;;;;;;;33.58;37.34;100870.58;1742757;82;21047;-61
2023/08/19 09:24:54;;;;;;;18.57;7.70;;;;;;;33.59;37.07;100865.14;1742631;82;21050;-61
2023/08/19 09:27:31;;;;;;;12.63;6.55;;;;;;;33.49;36.33;100864.09;1742521;82;21426;-61
2023/08/19 09:30:02;;;;;;;10.70;6.67;;;;;;;33.40;36.13;100871.83;1742779;82;20999;-66
2023/08/19 09:32:35;;;;;;;9.23;6.95;;;;;;;33.30;36.86;100870.78;1742884;82;21003;-63
2023/08/19 09:35:12;;;;;;;12.73;7.20;;;;;;;33.16;37.61;100868.67;1742806;82;21039;-61
2023/08/19 09:37:41;;;;;;;7.70;6.90;;;;;;;33.05;37.95;100860.52;1742626;82;21020;-61
2023/08/19 09:40:11;;;;;;;10.23;6.95;;;;;;;32.98;38.53;100858.77;1742790;82;21067;-61
2023/08/19 09:42:43;;;;;;;11.60;7.05;;;;;;;32.88;38.71;100861.14;1742636;82;21023;-61
2023/08/19 09:45:19;;;;;;;11.22;7.58;;;;;;;32.77;38.87;100853.52;1720604;82;21012;-59
2023/08/19 09:47:50;;;;;;;12.95;7.97;;;;;;;32.67;39.19;100856.12;1742969;82;21075;-62
2023/08/19 09:50:24;;;;;;;12.25;7.85;;;;;;;32.58;38.73;100858.13;1742696;82;21035;-63
2023/08/19 09:52:56;;;;;;;13.40;8.03;;;;;;;32.44;39.22;100851.18;1742569;82;21067;-62
2023/08/19 09:55:29;;;;;;;8.98;7.10;;;;;;;32.42;39.12;100856.36;1613203;86;21100;-61
2023/08/19 09:57:59;;;;;;;10.15;7.35;;;;;;;32.45;39.28;100850.02;1672616;86;21473;-66
2023/08/19 10:00:29;;;;;;;9.43;7.60;;;;;;;32.45;39.21;100847.77;1642907;87;21183;-62
2023/08/19 10:02:57;;;;;;;9.85;7.55;;;;;;;32.45;39.21;100838.66;1640964;87;21168;-64
2023/08/19 10:05:27;;;;;;;9.05;7.47;;;;;;;32.40;39.38;100842.25;1619751;87;21156;-65
2023/08/19 10:08:01;;;;;;;12.28;7.45;;;;;;;32.33;39.69;100840.50;1656233;86;21114;-62
2023/08/19 10:10:31;;;;;;;10.98;7.55;;;;;;;32.30;39.82;100837.75;1663745;86;21136;-61
2023/08/19 10:13:02;;;;;;;10.43;7.25;;;;;;;32.29;39.66;100839.50;1664038;82;21070;-64
2023/08/19 10:15:33;;;;;;;11.63;7.12;;;;;;;32.24;39.60;100835.38;1756276;82;21472;-64
2023/08/19 10:18:16;;;;;;;9.53;7.35;;;;;;;32.23;39.45;100836.55;1756575;82;21042;-71
2023/08/19 10:20:50;;;;;;;11.50;7.03;;;;;;;32.22;39.22;100839.97;1756198;82;21065;-64
2023/08/19 10:23:20;;;;;;;10.15;6.92;;;;;;;32.14;39.38;100840.79;1756342;81;21117;-63
2023/08/19 10:25:50;;;;;;;9.15;6.62;;;;;;;32.09;39.04;100838.95;1726587;82;21081;-64
2023/08/19 10:28:27;;;;;;;11.50;6.87;;;;;;;32.01;38.90;100838.36;1756301;81;21089;-64
2023/08/19 10:31:13;;;;;;;10.32;6.62;;;;;;;31.95;38.11;100830.34;1704050;82;21120;-64
2023/08/19 10:33:45;;;;;;;8.48;6.10;;;;;;;31.93;38.45;100829.84;1756277;82;21030;-64
2023/08/19 10:36:18;;;;;;;14.33;6.75;;;;;;;31.81;38.77;100821.37;1756045;82;21062;-64
2023/08/19 10:38:50;;;;;;;11.88;6.60;;;;;;;31.77;38.95;100833.11;1756237;82;20998;-64
2023/08/19 10:41:36;;;;;;;9.13;6.30;;;;;;;31.72;38.97;100826.77;1754079;82;21459;-64
2023/08/19 10:44:09;;;;;;;7.75;6.60;;;;;;;31.73;38.87;100825.59;1756262;82;21102;-65
2023/08/19 10:46:41;;;;;;;11.03;6.28;;;;;;;31.74;38.82;100819.60;1721856;83;21093;-62
2023/08/19 10:49:19;;;;;;;10.55;6.53;;;;;;;31.78;38.74;100817.77;1704630;84;21067;-64
2023/08/19 10:52:06;;;;;;;10.08;6.60;;;;;;;31.81;38.74;100815.70;1722484;83;21450;-64
2023/08/19 10:54:39;;;;;;;10.05;6.40;;;;;;;31.79;38.63;100815.77;1722565;82;21456;-62
2023/08/19 10:57:17;;;;;;;8.15;6.03;;;;;;;31.70;38.80;100812.92;1722406;82;21072;-65
2023/08/19 10:59:47;;;;;;;9.75;5.72;;;;;;;31.66;38.74;100811.05;1720735;82;21112;-62
2023/08/19 11:02:18;;;;;;;7.67;5.72;;;;;;;31.64;38.46;100805.70;1709365;83;21517;-64
2023/08/19 11:04:48;;;;;;;6.53;5.58;;;;;;;31.64;38.06;100811.95;1709655;84;21051;-64
2023/08/19 11:07:17;;;;;;;10.75;6.17;;;;;;;31.65;37.92;100803.70;1714358;83;21458;-65
2023/08/19 11:09:48;;;;;;;7.95;5.60;;;;;;;31.65;38.03;100805.12;1691499;85;21096;-64
2023/08/19 11:12:21;;;;;;;7.83;5.45;;;;;;;31.69;38.10;100805.55;1703625;84;21485;-64
2023/08/19 11:14:51;;;;;;;7.90;5.50;;;;;;;31.75;37.95;100808.52;1703598;84;21041;-64
2023/08/19 11:17:33;;;;;;;6.53;5.47;;;;;;;31.81;37.34;100796.44;1703755;84;21052;-67
2023/08/19 11:20:13;;;;;;;9.03;5.67;;;;;;;31.80;37.14;100798.44;1703775;84;21481;-68
2023/08/19 11:22:46;;;;;;;7.90;5.22;;;;;;;31.81;37.18;100794.44;1703713;84;21045;-64
2023/08/19 11:25:16;;;;;;;10.80;5.70;;;;;;;31.87;36.98;100792.89;1703731;84;21077;-64
2023/08/19 11:27:46;;;;;;;10.03;6.05;;;;;;;31.92;36.98;100789.91;1703836;84;21535;-64
2023/08/19 11:30:15;;;;;;;8.80;5.40;;;;;;;31.94;36.92;100791.83;1703711;84;21105;-63
2023/08/19 11:32:46;;;;;;;7.70;5.58;;;;;;;31.93;36.84;100793.83;1703636;84;21061;-65
2023/08/19 11:35:17;;;;;;;9.48;4.90;;;;;;;31.89;36.83;100797.07;1597275;90;21590;-64